createdAt,value
2016-10-10T00:00:28.859Z,79.38
2016-10-10T00:01:39.323Z,78.99
2016-10-10T00:02:49.794Z,78.7
2016-10-10T00:04:00.279Z,79.19
2016-10-10T00:05:10.779Z,79.57
2016-10-10T00:06:21.367Z,78.9
2016-10-10T00:07:31.846Z,78.8
2016-10-10T00:08:42.374Z,78.52
2016-10-10T00:09:52.837Z,78.9
2016-10-10T00:11:03.334Z,78.9
2016-10-10T00:12:13.808Z,79.76
2016-10-10T00:13:24.300Z,79.09
2016-10-10T00:14:34.805Z,79.19
2016-10-10T00:15:45.259Z,79.28
2016-10-10T00:16:55.751Z,79.09
2016-10-10T00:18:06.396Z,79.19
2016-10-10T00:19:16.889Z,79.09
2016-10-10T00:20:27.417Z,78.32
2016-10-10T00:21:37.974Z,78.23
2016-10-10T00:22:48.485Z,78.61
2016-10-10T00:23:59.074Z,78.8
2016-10-10T00:25:09.606Z,78.9
2016-10-10T00:26:20.117Z,79.34
2016-10-10T00:27:30.626Z,79.47
2016-10-10T00:28:41.158Z,79.72
2016-10-10T00:29:51.716Z,78.96
2016-10-10T00:31:02.711Z,79.28
2016-10-10T00:32:13.205Z,78.7
2016-10-10T00:33:23.675Z,78.23
2016-10-10T00:34:34.146Z,78.8
2016-10-10T00:35:44.611Z,78.61
2016-10-10T00:36:55.084Z,79.19
2016-10-10T00:38:05.969Z,79.19
2016-10-10T00:39:16.472Z,78.9
2016-10-10T00:40:26.970Z,78.7
2016-10-10T00:41:37.656Z,79.28
2016-10-10T00:42:48.174Z,79.44
2016-10-10T00:43:58.618Z,79.63
2016-10-10T00:45:09.096Z,79.63
2016-10-10T00:46:19.558Z,79.91
2016-10-10T00:50:26.610Z,79.67
2016-10-10T00:51:37.107Z,79.72
2016-10-10T00:52:47.622Z,79.57
2016-10-10T00:53:58.167Z,79.91
2016-10-10T00:55:08.650Z,80.3
2016-10-10T00:56:19.147Z,79.91
2016-10-10T00:57:29.622Z,80.2
2016-10-10T00:58:40.227Z,80.34
2016-10-10T00:59:50.704Z,80.2
2016-10-10T01:01:01.201Z,80.3
2016-10-10T01:02:11.703Z,80.49
2016-10-10T01:03:22.266Z,80.4
2016-10-10T01:04:32.848Z,80.87
2016-10-10T01:05:43.302Z,81.54
2016-10-10T01:06:54.199Z,81.26
2016-10-10T01:08:04.676Z,81.07
2016-10-10T01:09:15.185Z,81.45
2016-10-10T01:10:25.751Z,81.35
2016-10-10T01:11:36.280Z,81.26
2016-10-10T01:12:46.735Z,81.45
2016-10-10T01:13:57.279Z,81.64
2016-10-10T01:15:07.824Z,81.54
2016-10-10T01:16:18.333Z,81.54
2016-10-10T01:17:28.851Z,81.64
2016-10-10T01:18:39.346Z,81.74
2016-10-10T01:19:49.826Z,81.07
2016-10-10T01:21:00.333Z,81.54
2016-10-10T01:22:10.885Z,81.45
2016-10-10T01:23:21.357Z,81.74
2016-10-10T01:24:31.818Z,81.64
2016-10-10T01:25:42.305Z,81.45
2016-10-10T01:26:52.807Z,81.45
2016-10-10T01:28:03.376Z,82.03
2016-10-10T01:29:13.916Z,82.31
2016-10-10T01:30:24.392Z,81.74
2016-10-10T01:31:34.930Z,82.21
2016-10-10T01:32:45.948Z,82.98
2016-10-10T01:33:56.897Z,82.79
2016-10-10T01:35:07.409Z,82.41
2016-10-10T01:36:17.913Z,82.7
2016-10-10T01:37:28.420Z,83.75
2016-10-10T01:38:38.912Z,83.27
2016-10-10T01:39:49.379Z,83.56
2016-10-10T01:40:59.843Z,83.37
2016-10-10T01:42:10.345Z,83.37
2016-10-10T01:43:20.867Z,83.37
2016-10-10T01:44:31.351Z,84.14
2016-10-10T01:45:41.925Z,83.65
2016-10-10T01:46:52.445Z,83.56
2016-10-10T01:48:02.935Z,85
2016-10-10T01:49:13.904Z,84.42
2016-10-10T01:53:04.594Z,84.42
2016-10-10T01:54:15.074Z,84.04
2016-10-10T01:55:25.582Z,84.04
2016-10-10T01:56:36.580Z,84.04
2016-10-10T01:57:47.085Z,84.23
2016-10-10T01:58:57.559Z,84.52
2016-10-10T02:00:08.035Z,84.23
2016-10-10T02:01:18.500Z,84.61
2016-10-10T02:02:28.997Z,84.81
2016-10-10T02:03:39.499Z,84.04
2016-10-10T02:04:49.994Z,84.33
2016-10-10T02:06:00.492Z,83.94
2016-10-10T02:07:11.766Z,84.23
2016-10-10T02:08:22.372Z,84.23
2016-10-10T02:09:32.836Z,84.71
2016-10-10T02:10:43.299Z,84.19
2016-10-10T02:11:53.805Z,84.61
2016-10-10T02:13:04.797Z,84.71
2016-10-10T02:14:15.406Z,85.05
2016-10-10T02:15:26.253Z,84.91
2016-10-10T02:16:36.770Z,83.85
2016-10-10T02:17:47.615Z,83.85
2016-10-10T02:18:58.074Z,84.71
2016-10-10T02:20:08.684Z,84.71
2016-10-10T02:21:19.161Z,84.71
2016-10-10T02:22:29.668Z,84.42
2016-10-10T02:23:40.194Z,84.14
2016-10-10T02:24:50.709Z,83.75
2016-10-10T02:26:01.565Z,83.75
2016-10-10T02:27:12.045Z,83.47
2016-10-10T02:28:22.555Z,83.37
2016-10-10T02:29:33.081Z,83.37
2016-10-10T02:30:44.135Z,83.47
2016-10-10T02:31:54.756Z,83.23
2016-10-10T02:33:05.269Z,83.56
2016-10-10T02:34:15.735Z,83.56
2016-10-10T02:35:26.737Z,82.89
2016-10-10T02:36:37.253Z,82.79
2016-10-10T02:37:48.711Z,83.08
2016-10-10T02:38:59.226Z,82.6
2016-10-10T02:40:09.718Z,82.79
2016-10-10T02:41:20.260Z,82.98
2016-10-10T02:42:30.799Z,82.79
2016-10-10T02:43:41.391Z,82.79
2016-10-10T02:44:51.927Z,82.89
2016-10-10T02:46:02.401Z,82.89
2016-10-10T02:47:12.858Z,82.85
2016-10-10T02:48:23.371Z,83.08
2016-10-10T02:49:33.999Z,83.08
2016-10-10T02:50:44.501Z,82.89
2016-10-10T02:51:55.010Z,83.08
2016-10-10T02:53:05.546Z,82.6
2016-10-10T02:54:16.438Z,83.08
2016-10-10T02:55:27.359Z,82.79
2016-10-10T02:56:37.881Z,83.04
2016-10-10T02:57:48.383Z,82.89
2016-10-10T02:58:58.869Z,82.41
2016-10-10T03:00:09.353Z,82.21
2016-10-10T03:01:19.964Z,82.31
2016-10-10T03:02:30.963Z,82.12
2016-10-10T03:03:41.460Z,82.18
2016-10-10T03:04:51.975Z,82.65
2016-10-10T03:06:02.497Z,82.46
2016-10-10T03:07:13.555Z,81.98
2016-10-10T03:08:24.060Z,82.56
2016-10-10T03:09:34.578Z,81.98
2016-10-10T03:10:45.084Z,82.08
2016-10-10T03:11:55.622Z,82.03
2016-10-10T03:13:06.290Z,81.64
2016-10-10T03:14:16.802Z,82.12
2016-10-10T03:15:27.308Z,82.31
2016-10-10T03:16:37.837Z,82.21
2016-10-10T03:17:48.742Z,82.18
2016-10-10T03:18:59.246Z,82.56
2016-10-10T03:20:09.764Z,81.7
2016-10-10T03:21:20.311Z,82.08
2016-10-10T03:22:30.816Z,82.18
2016-10-10T03:23:41.371Z,81.98
2016-10-10T03:24:51.932Z,82.65
2016-10-10T03:26:02.457Z,82.27
2016-10-10T03:27:12.957Z,81.98
2016-10-10T03:28:23.836Z,81.6
2016-10-10T03:29:34.331Z,81.89
2016-10-10T03:30:44.902Z,82.08
2016-10-10T03:31:55.399Z,81.89
2016-10-10T03:33:05.907Z,82.37
2016-10-10T03:34:16.851Z,81.89
2016-10-10T03:35:27.347Z,82.18
2016-10-10T03:36:38.429Z,82.75
2016-10-10T03:37:48.893Z,82.94
2016-10-10T03:38:59.425Z,82.75
2016-10-10T03:40:09.921Z,83.23
2016-10-10T03:41:21.347Z,84.25
2016-10-10T03:42:31.962Z,83.61
2016-10-10T03:43:43.388Z,84.05
2016-10-10T03:44:54.357Z,85.01
2016-10-10T03:46:04.872Z,84.82
2016-10-10T03:47:15.347Z,85.21
2016-10-10T03:48:26.392Z,84.53
2016-10-10T03:49:37.234Z,84.91
2016-10-10T03:50:48.126Z,85.11
2016-10-10T03:51:58.612Z,85.11
2016-10-10T03:53:09.084Z,84.72
2016-10-10T03:54:20.113Z,84.91
2016-10-10T03:55:31.125Z,85.16
2016-10-10T03:56:42.132Z,85.21
2016-10-10T03:57:52.697Z,85.16
2016-10-10T03:59:03.173Z,85.16
2016-10-10T04:00:13.734Z,85.45
2016-10-10T04:01:24.223Z,85.54
2016-10-10T04:02:36.468Z,85.54
2016-10-10T04:03:46.939Z,85.54
2016-10-10T04:04:57.850Z,85.83
2016-10-10T04:06:08.951Z,85.35
2016-10-10T04:07:19.472Z,85.45
2016-10-10T04:08:29.984Z,85.64
2016-10-10T04:09:40.478Z,85.74
2016-10-10T04:10:50.976Z,85.35
2016-10-10T04:12:01.496Z,84.78
2016-10-10T04:13:11.998Z,84.97
2016-10-10T04:14:22.871Z,84.78
2016-10-10T04:15:33.329Z,84.97
2016-10-10T04:16:43.819Z,85.25
2016-10-10T04:17:54.398Z,85.06
2016-10-10T04:19:04.884Z,85.25
2016-10-10T04:20:15.732Z,85.54
2016-10-10T04:21:26.189Z,85.54
2016-10-10T04:22:36.715Z,85.83
2016-10-10T04:23:47.339Z,85.54
2016-10-10T04:24:57.817Z,85.74
2016-10-10T04:26:08.335Z,86.21
2016-10-10T04:27:18.835Z,85.45
2016-10-10T04:28:29.376Z,86.31
2016-10-10T04:29:39.973Z,86.21
2016-10-10T04:30:50.484Z,85.93
2016-10-10T04:32:00.965Z,86.6
2016-10-10T04:33:11.470Z,86.69
2016-10-10T04:35:03.958Z,86.69
2016-10-10T04:36:14.575Z,86.6
2016-10-10T04:37:25.582Z,86.6
2016-10-10T04:38:36.085Z,86.79
2016-10-10T04:39:46.616Z,87.17
2016-10-10T04:40:57.200Z,87.27
2016-10-10T04:42:07.683Z,87.17
2016-10-10T04:43:18.215Z,87.13
2016-10-10T04:44:28.759Z,87.84
2016-10-10T04:45:39.276Z,87.94
2016-10-10T04:46:49.871Z,87.23
2016-10-10T04:48:00.411Z,87.23
2016-10-10T04:49:10.986Z,88.37
2016-10-10T04:50:21.532Z,87.9
2016-10-10T04:51:32.101Z,88.09
2016-10-10T04:52:42.630Z,87.9
2016-10-10T04:53:53.158Z,87.94
2016-10-10T04:55:03.729Z,87.41
2016-10-10T04:56:14.673Z,87.37
2016-10-10T04:57:25.203Z,87.27
2016-10-10T04:58:35.815Z,87.37
2016-10-10T04:59:46.755Z,87.37
2016-10-10T05:00:57.279Z,87.94
2016-10-10T05:02:07.812Z,87.8
2016-10-10T05:03:18.344Z,87.84
2016-10-10T05:04:28.909Z,87.74
2016-10-10T05:05:39.412Z,87.99
2016-10-10T05:06:49.953Z,87.74
2016-10-10T05:08:00.476Z,88.03
2016-10-10T05:09:11.037Z,87.7
2016-10-10T05:10:21.721Z,87.8
2016-10-10T05:11:32.299Z,87.99
2016-10-10T05:12:42.871Z,87.94
2016-10-10T05:13:53.490Z,87.94
2016-10-10T05:15:04.062Z,88.03
2016-10-10T05:16:14.681Z,87.74
2016-10-10T05:17:25.245Z,87.74
2016-10-10T05:18:35.819Z,87.7
2016-10-10T05:19:46.397Z,88.03
2016-10-10T05:20:56.961Z,87.94
2016-10-10T05:22:07.679Z,87.94
2016-10-10T05:23:18.645Z,87.74
2016-10-10T05:24:29.222Z,87.84
2016-10-10T05:25:39.795Z,87.84
2016-10-10T05:26:50.356Z,88.03
2016-10-10T05:28:01.078Z,88.23
2016-10-10T05:29:12.040Z,88.03
2016-10-10T05:30:22.617Z,88.23
2016-10-10T05:31:33.205Z,87.55
2016-10-10T05:32:44.165Z,87.74
2016-10-10T05:33:54.849Z,88.13
2016-10-10T05:35:05.419Z,88.13
2016-10-10T05:36:15.990Z,88.09
2016-10-10T05:37:26.561Z,87.99
2016-10-10T05:38:37.145Z,88.32
2016-10-10T05:39:48.121Z,88.47
2016-10-10T05:40:58.693Z,88.47
2016-10-10T05:42:09.236Z,88.51
2016-10-10T05:43:19.761Z,88.18
2016-10-10T05:44:30.340Z,87.74
2016-10-10T05:45:41.052Z,88.23
2016-10-10T05:46:51.545Z,88.13
2016-10-10T05:48:02.585Z,88.03
2016-10-10T05:49:13.136Z,88.03
2016-10-10T05:50:23.644Z,87.84
2016-10-10T05:51:34.165Z,87.55
2016-10-10T05:52:45.173Z,88.13
2016-10-10T05:53:56.188Z,87.94
2016-10-10T05:55:06.723Z,87.84
2016-10-10T05:56:17.243Z,87.74
2016-10-10T05:57:28.282Z,87.94
2016-10-10T05:58:38.825Z,88.42
2016-10-10T05:59:49.342Z,87.55
2016-10-10T06:00:59.866Z,88.13
2016-10-10T06:02:10.382Z,88.42
2016-10-10T06:03:21.002Z,87.74
2016-10-10T06:04:31.528Z,88.51
2016-10-10T06:05:42.034Z,88.13
2016-10-10T06:06:52.548Z,88.03
2016-10-10T06:08:03.054Z,88.03
2016-10-10T06:09:13.716Z,88.03
2016-10-10T06:10:24.262Z,87.55
2016-10-10T06:11:34.767Z,87.84
2016-10-10T06:12:45.326Z,87.94
2016-10-10T06:13:55.858Z,87.74
2016-10-10T06:15:06.377Z,87.84
2016-10-10T06:16:16.882Z,88.42
2016-10-10T06:17:27.373Z,87.84
2016-10-10T06:18:37.893Z,87.84
2016-10-10T06:19:48.362Z,88.23
2016-10-10T06:20:58.923Z,87.94
2016-10-10T06:22:09.402Z,88.23
2016-10-10T06:23:19.922Z,88.42
2016-10-10T06:24:30.418Z,88.13
2016-10-10T06:25:40.883Z,88.23
2016-10-10T06:26:51.515Z,88.32
2016-10-10T06:28:01.969Z,88.23
2016-10-10T06:29:12.448Z,87.84
2016-10-10T06:30:22.964Z,88.13
2016-10-10T06:31:33.499Z,88.32
2016-10-10T06:32:44.097Z,87.94
2016-10-10T06:33:54.593Z,88.13
2016-10-10T06:35:05.085Z,88.13
2016-10-10T06:36:15.591Z,88.13
2016-10-10T06:37:26.078Z,88.23
2016-10-10T06:38:36.559Z,88.03
2016-10-10T06:39:47.092Z,88.03
2016-10-10T06:40:57.546Z,88.23
2016-10-10T06:42:08.396Z,88.42
2016-10-10T06:43:18.915Z,88.42
2016-10-10T06:44:29.469Z,88.23
2016-10-10T06:45:39.994Z,88.42
2016-10-10T06:46:50.489Z,88.23
2016-10-10T06:48:00.956Z,88.42
2016-10-10T06:49:11.486Z,88.42
2016-10-10T06:50:22.084Z,88.13
2016-10-10T06:51:32.603Z,88.13
2016-10-10T06:52:43.093Z,88.42
2016-10-10T06:53:53.575Z,88.61
2016-10-10T06:55:04.060Z,88.32
2016-10-10T06:56:14.661Z,88.03
2016-10-10T06:57:25.117Z,87.74
2016-10-10T06:58:35.576Z,88.03
2016-10-10T06:59:46.063Z,87.37
2016-10-10T07:00:56.524Z,87.17
2016-10-10T07:02:07.023Z,87.37
2016-10-10T07:03:17.518Z,86.88
2016-10-10T07:04:27.976Z,87.55
2016-10-10T07:05:38.521Z,87.17
2016-10-10T07:06:49.068Z,87.27
2016-10-10T07:07:59.672Z,87.27
2016-10-10T07:09:10.197Z,87.84
2016-10-10T07:10:21.203Z,87.94
2016-10-10T07:11:31.686Z,88.13
2016-10-10T07:12:42.171Z,87.84
2016-10-10T07:13:52.724Z,88.03
2016-10-10T07:15:03.213Z,87.94
2016-10-10T07:16:13.753Z,87.94
2016-10-10T07:17:24.220Z,87.84
2016-10-10T07:18:34.755Z,88.03
2016-10-10T07:19:45.343Z,87.94
2016-10-10T07:20:55.853Z,87.46
2016-10-10T07:22:06.378Z,87.84
2016-10-10T07:23:16.881Z,87.37
2016-10-10T07:24:27.401Z,87.17
2016-10-10T07:25:37.934Z,86.98
2016-10-10T07:26:48.448Z,86.88
2016-10-10T07:27:59.384Z,86.5
2016-10-10T07:29:09.904Z,86.69
2016-10-10T07:30:20.428Z,86.98
2016-10-10T07:31:31.026Z,86.98
2016-10-10T07:32:41.553Z,86.79
2016-10-10T07:33:52.004Z,86.02
2016-10-10T07:35:02.508Z,86.02
2016-10-10T07:36:13.021Z,86.21
2016-10-10T07:37:23.629Z,86.12
2016-10-10T07:38:34.103Z,86.27
2016-10-10T07:39:44.601Z,86.46
2016-10-10T07:40:55.111Z,86.41
2016-10-10T07:42:05.653Z,86.98
2016-10-10T07:43:16.255Z,86.5
2016-10-10T07:44:26.775Z,86.79
2016-10-10T07:45:37.266Z,86.36
2016-10-10T07:46:48.187Z,87.23
2016-10-10T07:47:58.644Z,86.65
2016-10-10T07:49:09.120Z,86.74
2016-10-10T07:50:19.604Z,87.41
2016-10-10T07:51:30.081Z,87.32
2016-10-10T07:52:40.579Z,86.94
2016-10-10T07:53:51.051Z,87.13
2016-10-10T07:55:01.766Z,86.46
2016-10-10T07:56:12.227Z,87.51
2016-10-10T07:57:23.137Z,87.23
2016-10-10T07:58:33.641Z,87.23
2016-10-10T07:59:44.128Z,87.13
2016-10-10T08:00:54.704Z,87.13
2016-10-10T08:02:05.245Z,87.8
2016-10-10T08:03:15.738Z,87.99
2016-10-10T08:04:26.240Z,88.09
2016-10-10T08:05:36.764Z,87.8
2016-10-10T08:06:47.250Z,87.99
2016-10-10T08:07:57.817Z,87.61
2016-10-10T08:09:08.332Z,88.23
2016-10-10T08:10:18.800Z,88.62
2016-10-10T08:11:29.310Z,88.23
2016-10-10T08:12:39.892Z,88.23
2016-10-10T08:13:50.783Z,88.62
2016-10-10T08:15:01.246Z,89.19
2016-10-10T08:16:11.753Z,89.29
2016-10-10T08:17:22.250Z,89
2016-10-10T08:18:32.809Z,88.71
2016-10-10T08:19:43.309Z,88.23
2016-10-10T08:20:53.809Z,88.76
2016-10-10T08:22:04.324Z,89.33
2016-10-10T08:23:14.821Z,89.09
2016-10-10T08:24:25.441Z,88.62
2016-10-10T08:25:35.931Z,89.38
2016-10-10T08:26:46.402Z,89
2016-10-10T08:27:56.926Z,88.71
2016-10-10T08:29:07.431Z,88.71
2016-10-10T08:30:17.925Z,88.95
2016-10-10T08:31:28.378Z,88.43
2016-10-10T08:32:38.863Z,88.62
2016-10-10T08:33:49.321Z,88.62
2016-10-10T08:34:59.796Z,88.71
2016-10-10T08:36:10.363Z,88.04
2016-10-10T08:37:20.871Z,88.13
2016-10-10T08:38:31.364Z,88.81
2016-10-10T08:39:41.875Z,88.04
2016-10-10T08:40:52.365Z,88.04
2016-10-10T08:42:03.015Z,88.37
2016-10-10T08:43:13.492Z,88.13
2016-10-10T08:44:23.990Z,88.04
2016-10-10T08:45:34.447Z,88.09
2016-10-10T08:46:44.962Z,88.13
2016-10-10T08:47:55.601Z,88.71
2016-10-10T08:49:06.085Z,88.33
2016-10-10T08:50:16.527Z,88.56
2016-10-10T08:51:26.995Z,88.28
2016-10-10T08:52:37.527Z,88.28
2016-10-10T08:53:48.081Z,88.18
2016-10-10T08:54:58.594Z,87.51
2016-10-10T08:56:09.100Z,88.09
2016-10-10T08:57:19.562Z,87.8
2016-10-10T08:58:30.510Z,87.23
2016-10-10T08:59:41.123Z,87.7
2016-10-10T09:00:51.614Z,87.32
2016-10-10T09:02:02.109Z,87.23
2016-10-10T09:03:12.602Z,86.94
2016-10-10T09:04:23.481Z,86.65
2016-10-10T09:05:34.036Z,87.23
2016-10-10T09:06:44.485Z,86.46
2016-10-10T09:07:55.004Z,86.55
2016-10-10T09:09:05.474Z,86.79
2016-10-10T09:10:15.972Z,86.79
2016-10-10T09:11:26.559Z,86.5
2016-10-10T09:12:37.551Z,86.21
2016-10-10T09:13:48.032Z,86.6
2016-10-10T09:14:58.527Z,86.79
2016-10-10T09:16:09.022Z,86.88
2016-10-10T09:17:19.498Z,86.6
2016-10-10T09:18:30.061Z,86.5
2016-10-10T09:19:40.912Z,86.41
2016-10-10T09:20:51.381Z,85.74
2016-10-10T09:22:01.831Z,85.83
2016-10-10T09:23:12.825Z,85.25
2016-10-10T09:24:23.299Z,85.64
2016-10-10T09:25:33.839Z,85.64
2016-10-10T09:26:44.335Z,85.35
2016-10-10T09:27:54.834Z,85.35
2016-10-10T09:29:05.475Z,85.64
2016-10-10T09:30:16.020Z,85.54
2016-10-10T09:31:26.542Z,85.64
2016-10-10T09:32:37.034Z,84.97
2016-10-10T09:33:47.512Z,84.68
2016-10-10T09:34:58.093Z,85.35
2016-10-10T09:36:08.550Z,85.06
2016-10-10T09:37:18.995Z,84.88
2016-10-10T09:38:29.515Z,84.97
2016-10-10T09:39:40.063Z,85.35
2016-10-10T09:40:50.586Z,85.35
2016-10-10T09:42:01.104Z,84.97
2016-10-10T09:43:11.651Z,85.16
2016-10-10T09:44:22.148Z,85.06
2016-10-10T09:45:32.680Z,84.88
2016-10-10T09:46:43.274Z,85.06
2016-10-10T09:47:53.796Z,84.39
2016-10-10T09:49:04.272Z,83.95
2016-10-10T09:50:14.805Z,84.25
2016-10-10T09:51:25.320Z,83.95
2016-10-10T09:52:36.315Z,83.58
2016-10-10T09:53:46.835Z,83.58
2016-10-10T09:54:57.320Z,83.58
2016-10-10T09:56:07.814Z,83.76
2016-10-10T09:57:18.848Z,84.05
2016-10-10T09:58:29.409Z,84.34
2016-10-10T09:59:39.886Z,83.76
2016-10-10T10:00:50.378Z,83.48
2016-10-10T10:02:00.851Z,83.67
2016-10-10T10:03:12.102Z,83.19
2016-10-10T10:04:22.707Z,83.58
2016-10-10T10:05:33.244Z,84.05
2016-10-10T10:06:43.781Z,83.58
2016-10-10T10:07:54.778Z,84.05
2016-10-10T10:09:05.239Z,83.86
2016-10-10T10:10:15.839Z,83.67
2016-10-10T10:11:26.308Z,83.38
2016-10-10T10:12:36.749Z,83.58
2016-10-10T10:13:47.211Z,83.76
2016-10-10T10:14:57.663Z,83.19
2016-10-10T10:16:08.236Z,82.9
2016-10-10T10:17:18.703Z,83
2016-10-10T10:18:29.174Z,83.19
2016-10-10T10:19:39.626Z,83.58
2016-10-10T10:20:50.085Z,83.09
2016-10-10T10:22:01.123Z,83.38
2016-10-10T10:23:11.580Z,83.38
2016-10-10T10:24:22.045Z,83.19
2016-10-10T10:25:32.986Z,83.19
2016-10-10T10:26:43.444Z,82.62
2016-10-10T10:27:54.011Z,82.52
2016-10-10T10:29:04.469Z,82.71
2016-10-10T10:30:14.933Z,82.81
2016-10-10T10:31:25.390Z,82.08
2016-10-10T10:32:35.852Z,81.98
2016-10-10T10:33:46.415Z,81.41
2016-10-10T10:34:56.866Z,81.22
2016-10-10T10:36:07.324Z,81.22
2016-10-10T10:37:17.783Z,80.49
2016-10-10T10:38:28.244Z,80.78
2016-10-10T10:39:39.188Z,80.78
2016-10-10T10:40:49.645Z,80.97
2016-10-10T10:42:00.104Z,80.58
2016-10-10T10:43:10.582Z,79.63
2016-10-10T10:44:21.088Z,79.44
2016-10-10T10:45:31.678Z,79.63
2016-10-10T10:46:42.157Z,79.34
2016-10-10T10:47:52.636Z,78.23
2016-10-10T10:49:03.162Z,78.61
2016-10-10T10:50:13.665Z,77.46
2016-10-10T10:51:24.538Z,77.65
2016-10-10T10:52:35.045Z,76.98
2016-10-10T10:53:45.551Z,77.56
2016-10-10T10:55:15.209Z,77.56
2016-10-10T10:56:25.835Z,76.69
2016-10-10T10:57:36.391Z,74.33
2016-10-10T10:58:47.243Z,72.92
2016-10-10T10:59:57.752Z,71.91
2016-10-10T11:01:09.104Z,71.52
2016-10-10T11:02:19.839Z,70.01
2016-10-10T11:03:30.383Z,70.98
2016-10-10T11:04:40.870Z,70.21
2016-10-10T11:05:51.384Z,71.14
2016-10-10T11:07:01.889Z,70.5
2016-10-10T11:08:12.470Z,68.86
2016-10-10T11:09:23.380Z,66.58
2016-10-10T11:10:33.897Z,65.3
2016-10-10T11:11:44.432Z,64.53
2016-10-10T11:12:54.979Z,64.82
2016-10-10T11:14:05.539Z,65.75
2016-10-10T11:15:16.064Z,67.26
2016-10-10T11:16:26.563Z,68.03
2016-10-10T11:17:37.024Z,68.57
2016-10-10T11:18:47.487Z,68.96
2016-10-10T11:19:58.049Z,68.96
2016-10-10T11:21:08.513Z,68.67
2016-10-10T11:22:18.977Z,68.96
2016-10-10T11:23:29.453Z,68.86
2016-10-10T11:24:39.916Z,68.96
2016-10-10T11:25:50.479Z,68.67
2016-10-10T11:27:00.941Z,69.06
2016-10-10T11:28:11.395Z,67.9
2016-10-10T11:29:21.859Z,67.99
2016-10-10T11:30:32.329Z,67.03
2016-10-10T11:31:42.904Z,65.05
2016-10-10T11:32:53.374Z,63.85
2016-10-10T11:34:03.844Z,64.34
2016-10-10T11:35:14.304Z,63.67
2016-10-10T11:36:24.767Z,63.57
2016-10-10T11:37:35.222Z,63.95
2016-10-10T11:38:45.682Z,64.4
2016-10-10T11:39:56.158Z,64.5
2016-10-10T11:41:06.616Z,64.21
2016-10-10T11:42:17.079Z,65.53
2016-10-10T11:43:27.642Z,64.59
2016-10-10T11:44:38.113Z,64.21
2016-10-10T11:45:48.583Z,60.39
2016-10-10T11:46:59.054Z,59
2016-10-10T11:48:09.531Z,57.17
2016-10-10T11:49:20.089Z,55.23
2016-10-10T11:50:30.583Z,55.13
2016-10-10T11:51:41.043Z,55.52
2016-10-10T11:52:52.077Z,57.35
2016-10-10T11:54:02.592Z,58.58
2016-10-10T11:55:13.181Z,57.81
2016-10-10T11:56:23.707Z,57.42
2016-10-10T11:57:34.278Z,58.07
2016-10-10T11:58:44.780Z,58.94
2016-10-10T11:59:55.258Z,58.75
2016-10-10T12:01:05.895Z,58.75
2016-10-10T12:02:16.407Z,59.71
2016-10-10T12:03:26.948Z,59.78
2016-10-10T12:04:37.472Z,60.13
2016-10-10T12:05:47.992Z,60.52
2016-10-10T12:06:58.595Z,59.75
2016-10-10T12:08:09.116Z,59.39
2016-10-10T12:09:19.617Z,58.42
2016-10-10T12:10:30.171Z,59.1
2016-10-10T12:11:40.687Z,59.65
2016-10-10T12:12:51.292Z,59.45
2016-10-10T12:14:01.850Z,59.68
2016-10-10T12:15:12.392Z,57.59
2016-10-10T12:16:22.915Z,56
2016-10-10T12:17:33.446Z,54.39
2016-10-10T12:18:44.037Z,55.26
2016-10-10T12:19:54.573Z,56.56
2016-10-10T12:21:05.077Z,57.23
2016-10-10T12:22:15.578Z,58.94
2016-10-10T12:23:26.044Z,59.39
2016-10-10T12:24:36.709Z,60.06
2016-10-10T12:25:47.286Z,60.42
2016-10-10T12:26:57.829Z,60.71
2016-10-10T12:28:08.365Z,60.52
2016-10-10T12:29:18.940Z,59.55
2016-10-10T12:30:29.578Z,60.61
2016-10-10T12:31:40.167Z,61.1
2016-10-10T12:32:50.745Z,60.13
2016-10-10T12:34:01.823Z,59.68
2016-10-10T12:35:12.389Z,60.61
2016-10-10T12:36:23.009Z,60.16
2016-10-10T12:37:33.938Z,59.68
2016-10-10T12:38:44.507Z,60.06
2016-10-10T12:39:55.069Z,58.94
2016-10-10T12:41:05.616Z,57.52
2016-10-10T12:42:16.639Z,56.84
2016-10-10T12:43:27.152Z,56.39
2016-10-10T12:44:38.089Z,56.39
2016-10-10T12:45:48.655Z,55.49
2016-10-10T12:46:59.583Z,56.29
2016-10-10T12:48:10.238Z,56.94
2016-10-10T12:49:21.281Z,56.81
2016-10-10T12:50:31.850Z,55.46
2016-10-10T12:51:42.383Z,55.4
2016-10-10T12:52:52.954Z,53.97
2016-10-10T12:54:03.967Z,51.71
2016-10-10T12:55:14.542Z,52.7
2016-10-10T12:56:25.092Z,51.64
2016-10-10T12:57:36.041Z,51.18
2016-10-10T12:58:47.054Z,50.98
2016-10-10T12:59:57.745Z,50.04
2016-10-10T13:01:08.291Z,49.87
2016-10-10T13:02:19.277Z,49.97
2016-10-10T13:03:29.865Z,50.33
2016-10-10T13:04:40.956Z,50.62
2016-10-10T13:05:51.903Z,51.37
2016-10-10T13:07:02.445Z,51.64
2016-10-10T13:08:13.389Z,52.12
2016-10-10T13:09:23.940Z,50.6
2016-10-10T13:10:34.494Z,49.07
2016-10-10T13:11:46.336Z,49.77
2016-10-10T13:12:56.899Z,50.26
2016-10-10T13:14:07.855Z,50.82
2016-10-10T13:15:18.423Z,50.4
2016-10-10T13:16:28.980Z,51.66
2016-10-10T13:17:40.147Z,51.73
2016-10-10T13:18:50.684Z,51.64
2016-10-10T13:20:01.232Z,52
2016-10-10T13:21:11.753Z,51.71
2016-10-10T13:22:22.323Z,50.96
2016-10-10T13:23:33.488Z,50.38
2016-10-10T13:24:44.031Z,48.39
2016-10-10T13:25:54.586Z,48.97
2016-10-10T13:27:05.146Z,50.6
2016-10-10T13:28:15.736Z,50.76
2016-10-10T13:29:26.417Z,50.86
2016-10-10T13:30:36.991Z,51.15
2016-10-10T13:31:47.550Z,50.86
2016-10-10T13:32:58.120Z,50.96
2016-10-10T13:34:08.653Z,51.64
2016-10-10T13:35:19.468Z,51.71
2016-10-10T13:36:30.014Z,52.48
2016-10-10T13:37:40.555Z,54.87
2016-10-10T13:38:51.085Z,54.27
2016-10-10T13:40:01.632Z,52.94
2016-10-10T13:41:12.290Z,51.81
2016-10-10T13:42:22.847Z,50.86
2016-10-10T13:43:33.897Z,51.35
2016-10-10T13:44:44.972Z,51.64
2016-10-10T13:45:55.489Z,51.73
2016-10-10T13:47:06.141Z,52.02
2016-10-10T13:48:16.697Z,52.87
2016-10-10T13:49:27.268Z,53.52
2016-10-10T13:50:37.846Z,52.84
2016-10-10T13:51:48.397Z,52.17
2016-10-10T13:52:59.065Z,51.61
2016-10-10T13:54:09.958Z,51.25
2016-10-10T13:55:20.481Z,51.73
2016-10-10T13:56:31.030Z,50.86
2016-10-10T13:57:41.568Z,50.96
2016-10-10T13:58:52.224Z,50.5
2016-10-10T14:00:03.236Z,50.21
2016-10-10T14:01:13.851Z,50.21
2016-10-10T14:02:24.365Z,50.12
2016-10-10T14:03:34.933Z,49.85
2016-10-10T14:04:45.716Z,48.88
2016-10-10T14:05:56.304Z,48.81
2016-10-10T14:07:06.888Z,48.22
2016-10-10T14:08:17.492Z,48.22
2016-10-10T14:09:28.079Z,48.42
2016-10-10T14:10:39.533Z,47.55
2016-10-10T14:11:50.131Z,47.09
2016-10-10T14:13:00.733Z,45.85
2016-10-10T14:14:11.328Z,47.11
2016-10-10T14:15:21.928Z,46.62
2016-10-10T14:16:32.723Z,45.65
2016-10-10T14:17:43.318Z,45.58
2016-10-10T14:18:53.893Z,44.42
2016-10-10T14:20:04.468Z,46.16
2016-10-10T14:21:15.064Z,45.07
2016-10-10T14:22:25.760Z,44.9
2016-10-10T14:23:36.367Z,43.86
2016-10-10T14:24:46.963Z,43.66
2016-10-10T14:25:57.566Z,42.79
2016-10-10T14:27:08.162Z,42.43
2016-10-10T14:28:18.848Z,41.84
2016-10-10T14:29:29.434Z,42.43
2016-10-10T14:30:40.034Z,42.4
2016-10-10T14:31:51.174Z,42.89
2016-10-10T14:33:02.264Z,42.6
2016-10-10T14:34:12.963Z,42.69
2016-10-10T14:35:23.554Z,43.18
2016-10-10T14:36:34.135Z,43.64
2016-10-10T14:37:44.735Z,44.42
2016-10-10T14:38:55.322Z,44.2
2016-10-10T14:40:06.025Z,43.64
2016-10-10T14:41:17.122Z,44.68
2016-10-10T14:42:28.212Z,43.62
2016-10-10T14:43:38.808Z,44.2
2016-10-10T14:44:49.419Z,44.42
2016-10-10T14:46:00.127Z,44.68
2016-10-10T14:47:10.719Z,45.05
2016-10-10T14:48:21.299Z,45.54
2016-10-10T14:49:31.881Z,45.61
2016-10-10T14:50:42.503Z,45.54
2016-10-10T14:51:53.197Z,43.72
2016-10-10T14:53:03.796Z,42.99
2016-10-10T14:54:14.385Z,42.52
2016-10-10T14:55:24.981Z,42.52
2016-10-10T14:56:35.579Z,42.52
2016-10-10T14:57:46.324Z,43.08
2016-10-10T14:59:16.125Z,43.64
2016-10-10T15:00:26.719Z,44.13
2016-10-10T15:01:37.313Z,43.64
2016-10-10T15:02:48.001Z,42.3
2016-10-10T15:03:58.602Z,42.3
2016-10-10T15:05:09.194Z,42.11
2016-10-10T15:06:19.778Z,42.4
2016-10-10T15:07:30.768Z,40.99
2016-10-10T15:08:41.477Z,39.18
2016-10-10T15:09:52.085Z,38.91
2016-10-10T15:11:03.079Z,38.13
2016-10-10T15:12:13.665Z,39.1
2016-10-10T15:13:24.170Z,38.81
2016-10-10T15:14:34.786Z,39.26
2016-10-10T15:15:58.039Z,40.89
2016-10-10T15:17:08.590Z,40.67
2016-10-10T15:18:19.155Z,41.26
2016-10-10T15:19:29.696Z,40.89